Time;durP1;ratioP1;P1;durP2;ratioP2;P2;SDS_P1;SDS_P2;PMS_P1;PMS_P2;Temp;Humidity;BMP_temperature;BMP_pressure;BME280_temperature;BME280_humidity;BME280_pressure;Samples;Min_cycle;Max_cycle;Signal;HPM_P1;HPM_P2
2022/08/11 00:01:47;;;;;;;5.32;3.55;;;;;;;15.97;53.94;102506.38;4985455;28;20593;-72
2022/08/11 00:04:14;;;;;;;5.72;3.50;;;;;;;15.99;53.44;102505.44;4983982;28;20034;-69
2022/08/11 00:06:40;;;;;;;5.35;3.38;;;;;;;16.00;53.66;102506.31;4985311;28;20108;-69
2022/08/11 00:09:09;;;;;;;6.90;4.25;;;;;;;15.90;54.09;102500.47;4984995;28;20046;-69
2022/08/11 00:11:46;;;;;;;4.30;3.42;;;;;;;15.94;54.13;102499.44;4986319;28;20030;-69
2022/08/11 00:14:21;;;;;;;5.28;3.80;;;;;;;15.87;54.67;102502.38;4986060;28;20040;-69
2022/08/11 00:17:02;;;;;;;4.95;3.85;;;;;;;15.94;54.28;102504.72;4999358;28;20908;-69
2022/08/11 00:19:43;;;;;;;4.93;3.03;;;;;;;16.08;53.97;102491.06;4985474;28;20040;-69
2022/08/11 00:22:11;;;;;;;3.63;2.83;;;;;;;16.08;53.75;102495.47;4984275;28;20058;-71
2022/08/11 00:24:39;;;;;;;5.25;3.42;;;;;;;15.98;53.94;102487.88;5000897;28;20046;-68
2022/08/11 00:27:06;;;;;;;5.00;3.20;;;;;;;15.95;53.99;102493.28;4985394;28;20738;-65
2022/08/11 00:29:32;;;;;;;5.38;2.90;;;;;;;15.96;53.81;102494.97;4999991;28;20529;-69
2022/08/11 00:32:00;;;;;;;3.60;2.38;;;;;;;16.00;53.81;102488.72;4966328;28;20061;-70
2022/08/11 00:34:32;;;;;;;5.40;2.80;;;;;;;15.97;54.02;102488.81;4986548;28;20029;-70
2022/08/11 00:37:02;;;;;;;5.55;2.70;;;;;;;15.97;53.55;102478.25;4983916;28;20150;-67
2022/08/11 00:39:33;;;;;;;6.40;2.63;;;;;;;15.91;53.73;102486.41;4985738;28;20103;-68
2022/08/11 00:42:01;;;;;;;7.68;3.00;;;;;;;15.98;53.59;102490.50;4983365;28;20061;-71
2022/08/11 00:44:45;;;;;;;5.97;3.10;;;;;;;15.91;53.48;102494.31;4986940;28;20579;-68
2022/08/11 00:47:28;;;;;;;2.78;2.20;;;;;;;15.90;53.11;102492.56;4985043;28;20049;-66
2022/08/11 00:50:12;;;;;;;4.47;2.28;;;;;;;15.92;53.30;102492.53;4985369;28;20503;-71
2022/08/11 00:53:15;;;;;;;2.10;1.65;;;;;;;15.78;53.42;102488.63;4984426;28;20050;-66
2022/08/11 00:55:47;;;;;;;3.28;2.58;;;;;;;15.71;53.41;102492.41;4999857;28;20026;-66
2022/08/11 00:58:27;;;;;;;4.50;1.80;;;;;;;15.65;53.35;102489.13;4982867;28;20364;-68
2022/08/11 01:01:05;;;;;;;7.03;2.40;;;;;;;15.63;53.41;102483.91;4981097;28;20108;-68
2022/08/11 01:03:33;;;;;;;2.67;1.95;;;;;;;15.55;53.62;102492.09;4983806;28;20563;-68
2022/08/11 01:06:17;;;;;;;4.78;2.55;;;;;;;15.54;53.55;102498.25;4984042;28;20401;-67
2022/08/11 01:09:11;;;;;;;4.47;2.50;;;;;;;15.59;53.82;102498.97;4981772;28;20080;-70
2022/08/11 01:12:03;;;;;;;5.82;2.08;;;;;;;15.63;53.71;102499.72;4984681;28;20030;-67
2022/08/11 01:14:50;;;;;;;4.88;1.98;;;;;;;15.54;53.58;102498.25;4983524;28;20495;-68
2022/08/11 01:18:09;;;;;;;6.03;2.83;;;;;;;15.52;53.81;102491.31;4985543;28;20322;-68
2022/08/11 01:21:00;;;;;;;4.10;2.30;;;;;;;15.49;53.78;102492.31;4984481;28;20066;-68
2022/08/11 01:24:03;;;;;;;3.60;2.38;;;;;;;15.41;54.15;102482.94;4984362;28;20085;-67
2022/08/11 01:26:41;;;;;;;2.75;2.28;;;;;;;15.39;54.13;102490.88;5002705;28;20034;-68
2022/08/11 01:29:19;;;;;;;3.15;2.83;;;;;;;15.36;54.33;102488.38;4983128;28;20235;-68
2022/08/11 01:32:06;;;;;;;3.03;2.58;;;;;;;15.40;54.07;102482.09;4984706;28;20030;-68
2022/08/11 01:35:19;;;;;;;3.47;2.42;;;;;;;15.41;53.92;102494.34;4986828;28;20030;-67
2022/08/11 01:38:11;;;;;;;3.58;1.67;;;;;;;15.34;53.86;102483.16;4984002;28;20124;-68
2022/08/11 01:40:58;;;;;;;2.42;1.67;;;;;;;15.23;53.98;102487.94;4985454;28;20034;-68
2022/08/11 01:46:43;;;;;;;3.80;2.40;;;;;;;15.23;53.89;102482.66;4984740;28;20112;-68
2022/08/11 01:49:38;;;;;;;4.25;2.35;;;;;;;15.19;54.22;102483.63;4982709;28;20140;-67
2022/08/11 01:52:07;;;;;;;4.47;1.50;;;;;;;15.14;53.82;102483.78;4981302;28;20038;-68
2022/08/11 01:55:11;;;;;;;2.42;1.40;;;;;;;15.08;54.08;102476.13;4983300;28;20096;-68
2022/08/11 01:57:55;;;;;;;3.08;1.45;;;;;;;15.07;54.13;102477.03;4970357;28;20598;-68
2022/08/11 02:00:27;;;;;;;2.65;2.33;;;;;;;15.07;54.32;102482.28;4985350;28;20045;-67
2022/08/11 02:03:00;;;;;;;3.20;1.40;;;;;;;14.95;54.17;102480.94;4981947;28;20882;-68
2022/08/11 02:05:44;;;;;;;2.30;1.80;;;;;;;14.92;54.38;102481.00;4998815;28;20499;-68
2022/08/11 02:08:20;;;;;;;1.98;1.70;;;;;;;14.91;54.09;102479.31;4984510;28;20081;-67
2022/08/11 02:13:56;;;;;;;3.90;1.88;;;;;;;14.87;53.92;102477.69;4983636;28;20104;-67
2022/08/11 02:16:33;;;;;;;2.15;1.42;;;;;;;14.88;53.97;102478.53;4983283;28;20046;-67
2022/08/11 02:25:40;;;;;;;2.22;1.55;;;;;;;14.75;53.90;102484.22;4986148;28;20160;-67
2022/08/11 02:28:21;;;;;;;2.75;1.48;;;;;;;14.71;54.23;102482.59;4983569;28;20148;-67
2022/08/11 02:33:50;;;;;;;2.53;2.15;;;;;;;14.73;53.66;102480.78;4980344;28;20072;-67
2022/08/11 02:36:21;;;;;;;1.80;0.95;;;;;;;14.67;53.38;102482.72;4984465;28;20038;-67
2022/08/11 02:38:49;;;;;;;3.28;1.08;;;;;;;14.60;53.58;102479.44;4994948;28;20647;-67
2022/08/11 02:44:27;;;;;;;4.70;1.70;;;;;;;14.48;53.69;102478.06;4981012;28;20089;-67
2022/08/11 02:47:13;;;;;;;1.73;1.10;;;;;;;14.41;54.01;102475.66;4981578;28;20058;-69
2022/08/11 02:49:55;;;;;;;2.20;1.40;;;;;;;14.34;53.96;102474.94;4988498;28;20197;-67
2022/08/11 02:52:21;;;;;;;3.38;1.48;;;;;;;14.35;53.82;102474.91;4981076;28;20046;-66
2022/08/11 02:55:05;;;;;;;1.50;0.77;;;;;;;14.32;53.84;102469.75;4983821;28;20109;-66
2022/08/11 02:57:41;;;;;;;2.42;1.38;;;;;;;14.33;53.93;102470.59;4980182;28;20061;-65
2022/08/11 03:00:13;;;;;;;3.55;1.58;;;;;;;14.24;53.63;102474.38;4983870;28;20482;-66
2022/08/11 03:02:50;;;;;;;3.92;1.05;;;;;;;14.28;53.64;102473.38;4979723;28;20081;-66
2022/08/11 03:05:35;;;;;;;2.72;1.42;;;;;;;14.26;53.80;102472.56;4982973;28;20419;-66
2022/08/11 03:08:14;;;;;;;5.63;1.90;;;;;;;14.24;53.75;102474.38;4980454;28;20589;-67
2022/08/11 03:17:13;;;;;;;3.13;2.28;;;;;;;14.33;53.54;102475.88;4984550;28;20784;-66
2022/08/11 03:19:42;;;;;;;2.38;1.75;;;;;;;14.22;53.57;102478.81;5002435;28;20446;-66
2022/08/11 03:22:12;;;;;;;3.35;2.15;;;;;;;14.15;53.57;102470.25;4986941;28;20058;-66
2022/08/11 03:25:01;;;;;;;3.63;1.75;;;;;;;14.08;53.85;102478.38;4987079;28;20088;-66
2022/08/11 03:27:35;;;;;;;2.65;1.98;;;;;;;14.10;53.78;102473.94;4981706;28;20038;-66
2022/08/11 03:30:26;;;;;;;3.92;1.90;;;;;;;14.13;53.74;102476.47;4984603;28;20037;-66
2022/08/11 03:36:07;;;;;;;3.38;1.98;;;;;;;14.09;53.45;102467.78;4985494;28;20049;-66
2022/08/11 03:38:51;;;;;;;2.80;1.83;;;;;;;14.03;53.59;102469.75;4986628;28;20048;-66
2022/08/11 03:41:46;;;;;;;2.17;1.85;;;;;;;14.02;53.42;102470.66;4986988;28;20084;-66
2022/08/11 03:44:42;;;;;;;2.95;1.33;;;;;;;14.00;53.43;102464.59;4985747;28;20129;-66
2022/08/11 03:47:07;;;;;;;3.97;1.80;;;;;;;14.03;53.39;102477.63;5001297;28;20133;-66
2022/08/11 03:50:02;;;;;;;2.67;1.58;;;;;;;13.97;53.39;102475.19;4985485;28;20576;-66
2022/08/11 03:52:58;;;;;;;5.13;2.40;;;;;;;13.90;53.38;102477.16;4967066;28;20526;-66
2022/08/11 03:55:32;;;;;;;4.45;1.88;;;;;;;13.93;53.47;102475.28;4986338;28;20034;-65
2022/08/11 03:58:18;;;;;;;3.95;2.20;;;;;;;13.95;53.35;102475.22;4961076;28;20085;-64
2022/08/11 04:00:55;;;;;;;3.67;1.80;;;;;;;13.92;53.25;102476.19;4988245;28;20034;-64
2022/08/11 04:03:49;;;;;;;2.85;1.63;;;;;;;13.96;53.59;102476.09;4999544;28;20050;-65
2022/08/11 04:06:49;;;;;;;1.75;1.33;;;;;;;13.93;53.46;102477.91;4987095;28;20035;-65
2022/08/11 04:09:36;;;;;;;2.72;1.65;;;;;;;13.99;53.31;102483.91;4999930;28;20050;-66
2022/08/11 04:12:37;;;;;;;2.95;1.73;;;;;;;13.98;53.17;102482.16;4979141;28;21090;-66
2022/08/11 04:18:27;;;;;;;2.75;2.00;;;;;;;13.93;53.28;102484.94;4983645;28;20072;-66
2022/08/11 04:21:23;;;;;;;2.78;2.08;;;;;;;13.95;52.91;102475.22;4996678;28;20023;-67
2022/08/11 04:24:04;;;;;;;3.53;2.00;;;;;;;13.98;52.85;102469.03;4987717;28;20543;-67
2022/08/11 04:27:23;;;;;;;2.22;1.60;;;;;;;14.02;52.81;102473.28;4985144;28;20034;-66
2022/08/11 04:30:13;;;;;;;3.13;1.75;;;;;;;14.05;52.87;102481.94;4972540;28;20055;-67
2022/08/11 04:33:19;;;;;;;2.47;1.90;;;;;;;14.04;52.87;102479.38;4979181;28;20053;-66
2022/08/11 04:39:55;;;;;;;3.35;2.00;;;;;;;14.00;53.49;102475.09;4997679;28;20045;-67
2022/08/11 04:46:09;;;;;;;4.07;2.83;;;;;;;14.26;54.12;102469.06;5007501;28;20033;-68
2022/08/11 05:02:07;;;;;;;5.93;3.72;;;;;;;14.62;53.99;102476.78;5001539;28;20376;-69
2022/08/11 05:08:24;;;;;;;5.82;3.35;;;;;;;14.83;53.62;102475.19;4989170;28;20060;-72
2022/08/11 05:11:20;;;;;;;4.10;3.70;;;;;;;14.92;53.69;102469.63;5007806;28;20124;-71
2022/08/11 05:36:50;;;;;;;3.50;3.05;;;;;;;19.12;43.62;102471.53;5006903;28;19927;-69
2022/08/11 05:57:02;;;;;;;3.20;2.05;;;;;;;26.60;29.13;102455.16;5069320;27;20391;-71
2022/08/11 05:59:31;;;;;;;3.25;1.73;;;;;;;27.30;27.13;102452.78;5048705;28;20028;-72
2022/08/11 06:02:04;;;;;;;4.90;1.83;;;;;;;27.49;26.55;102451.97;5039919;28;20048;-66
2022/08/11 06:04:34;;;;;;;4.63;1.60;;;;;;;26.81;27.78;102457.81;5045225;28;20047;-66
2022/08/11 06:07:09;;;;;;;5.65;1.73;;;;;;;27.22;27.71;102464.16;5043703;28;20048;-67
2022/08/11 06:09:46;;;;;;;2.58;1.90;;;;;;;28.45;26.72;102455.03;5043412;28;20067;-68
2022/08/11 06:12:31;;;;;;;2.65;2.08;;;;;;;28.10;26.31;102457.28;5036166;28;20466;-67
2022/08/11 06:15:02;;;;;;;5.40;1.80;;;;;;;28.45;25.14;102455.03;5048059;28;20060;-69
2022/08/11 06:17:32;;;;;;;3.13;1.75;;;;;;;28.75;24.55;102459.44;5045831;28;20050;-68
2022/08/11 06:20:01;;;;;;;3.25;1.80;;;;;;;28.67;25.24;102451.22;5045382;28;20032;-66
2022/08/11 06:22:30;;;;;;;3.97;0.88;;;;;;;29.60;23.99;102460.34;5029853;28;20040;-67
2022/08/11 06:25:01;;;;;;;3.45;1.30;;;;;;;30.91;22.82;102458.03;5043451;28;20056;-67
2022/08/11 06:27:34;;;;;;;4.95;1.55;;;;;;;31.23;22.01;102461.97;5060855;28;20070;-66
2022/08/11 06:30:12;;;;;;;6.32;1.00;;;;;;;31.42;21.61;102461.72;5042762;28;20096;-66
2022/08/11 06:32:40;;;;;;;2.63;1.08;;;;;;;31.62;21.41;102460.47;5034274;28;20053;-66
2022/08/11 06:35:47;;;;;;;6.57;1.02;;;;;;;32.08;20.47;102449.28;5041324;28;20029;-68
2022/08/11 06:38:42;;;;;;;3.05;1.30;;;;;;;31.51;20.88;102459.91;5038507;28;20088;-67
2022/08/11 06:41:30;;;;;;;6.07;1.65;;;;;;;30.94;22.20;102455.03;5045468;28;20028;-66
2022/08/11 06:44:04;;;;;;;4.43;1.27;;;;;;;31.38;22.07;102460.34;5034655;28;20037;-66
2022/08/11 06:46:35;;;;;;;3.78;0.88;;;;;;;31.53;21.55;102458.75;5046102;28;20427;-66
2022/08/11 06:52:08;;;;;;;2.00;1.27;;;;;;;30.92;22.54;102457.03;5020938;28;20594;-67
2022/08/11 06:54:40;;;;;;;3.60;1.15;;;;;;;32.05;21.21;102459.56;5040689;28;20049;-67
2022/08/11 07:02:46;;;;;;;5.72;0.88;;;;;;;32.96;20.12;102451.28;5042199;28;20128;-66
2022/08/11 07:05:44;;;;;;;2.13;0.93;;;;;;;32.63;20.40;102451.34;5040791;28;20422;-66
2022/08/11 07:17:12;;;;;;;3.67;0.80;;;;;;;32.98;18.98;102453.81;5029269;28;20043;-65
2022/08/11 07:28:56;;;;;;;1.60;0.68;;;;;;;34.66;16.86;102446.94;5027695;28;20064;-66
2022/08/11 07:31:39;;;;;;;1.20;0.70;;;;;;;34.77;17.20;102445.59;5028435;28;20037;-66
2022/08/11 07:34:24;;;;;;;4.28;1.10;;;;;;;35.33;17.34;102444.31;5015134;28;20108;-66
2022/08/11 07:36:57;;;;;;;1.63;0.50;;;;;;;35.14;17.58;102445.75;5019406;28;20446;-66
2022/08/11 07:39:30;;;;;;;1.70;0.45;;;;;;;35.25;17.48;102448.81;5027770;28;20052;-66
2022/08/11 07:42:06;;;;;;;1.35;0.60;;;;;;;36.40;16.17;102441.69;5007233;28;20041;-66
2022/08/11 07:48:10;;;;;;;3.97;0.57;;;;;;;37.35;14.88;102444.81;5030483;28;20036;-66
2022/08/11 07:53:03;;;;;;;1.27;0.35;;;;;;;37.09;15.52;102440.09;5030526;28;20459;-66
2022/08/11 07:55:33;;;;;;;1.42;0.40;;;;;;;36.61;15.10;102442.66;5031035;28;20028;-65
2022/08/11 08:17:52;;;;;;;1.90;0.25;;;;;;;38.50;13.90;102445.63;5021442;28;20136;-66
2022/08/11 08:20:23;;;;;;;5.40;0.50;;;;;;;37.50;14.04;102441.94;5016277;28;20036;-66
2022/08/11 08:22:55;;;;;;;2.08;0.32;;;;;;;37.05;15.08;102446.97;4986793;28;20406;-66
2022/08/11 08:25:36;;;;;;;4.57;0.90;;;;;;;37.47;14.15;102439.63;5029218;28;20028;-68
2022/08/11 08:28:09;;;;;;;2.75;0.50;;;;;;;37.25;13.90;102445.19;5043456;28;20045;-66
2022/08/11 08:30:46;;;;;;;2.38;0.28;;;;;;;36.89;14.41;102445.41;5035134;28;20572;-67
2022/08/11 08:33:18;;;;;;;3.42;0.50;;;;;;;37.66;13.12;102443.47;5021031;28;20147;-67
2022/08/11 08:35:44;;;;;;;2.83;1.27;;;;;;;37.65;13.73;102439.03;5031822;28;20041;-67
2022/08/11 08:38:13;;;;;;;5.70;0.60;;;;;;;38.03;14.11;102447.50;5009886;28;20095;-66
2022/08/11 08:40:44;;;;;;;4.22;3.65;;;;;;;38.20;13.20;102438.94;5029957;28;20033;-66
2022/08/11 08:43:16;;;;;;;1.00;0.70;;;;;;;39.42;12.78;102433.81;5027733;28;20407;-66
2022/08/11 08:45:54;;;;;;;3.88;0.30;;;;;;;39.36;11.80;102444.56;5025043;28;20176;-66
2022/08/11 08:48:28;;;;;;;2.42;0.50;;;;;;;38.25;12.82;102439.16;5017708;28;20048;-66
2022/08/11 08:53:53;;;;;;;1.23;0.30;;;;;;;37.11;13.02;102446.19;5013752;28;20465;-68
2022/08/11 08:56:32;;;;;;;1.55;0.40;;;;;;;36.67;14.78;102439.19;5024577;28;20095;-66
2022/08/11 08:59:01;;;;;;;0.60;0.30;;;;;;;38.12;13.32;102443.53;5005535;28;20470;-67
2022/08/11 09:01:35;;;;;;;1.65;0.43;;;;;;;36.81;13.53;102438.25;5028379;28;20238;-67
2022/08/11 09:04:05;;;;;;;2.08;0.40;;;;;;;35.92;14.07;102445.03;5019735;28;20056;-67
2022/08/11 09:06:34;;;;;;;0.75;0.30;;;;;;;35.56;15.47;102445.03;5023675;28;20076;-66
2022/08/11 09:09:03;;;;;;;1.50;0.30;;;;;;;35.21;15.26;102436.63;5023001;28;20561;-66
2022/08/11 09:14:15;;;;;;;4.40;0.30;;;;;;;34.74;15.38;102443.28;5024226;28;20048;-66
2022/08/11 09:16:43;;;;;;;4.63;0.50;;;;;;;34.53;15.62;102443.13;4998026;28;20459;-67
2022/08/11 09:19:19;;;;;;;3.63;0.30;;;;;;;33.96;15.56;102433.59;5025096;28;20044;-66
2022/08/11 09:27:38;;;;;;;3.28;1.00;;;;;;;32.01;16.70;102432.88;5015988;28;20064;-66
2022/08/11 09:30:10;;;;;;;0.50;0.20;;;;;;;31.30;17.30;102434.16;5010723;28;20044;-66
2022/08/11 09:32:39;;;;;;;3.30;0.30;;;;;;;30.56;18.95;102427.44;5022666;28;20037;-66
2022/08/11 09:35:13;;;;;;;1.90;0.32;;;;;;;30.23;17.74;102427.16;5024469;28;20029;-66
2022/08/11 09:40:29;;;;;;;3.00;0.60;;;;;;;30.66;17.74;102422.78;5023909;28;20060;-67
2022/08/11 09:45:52;;;;;;;1.48;0.30;;;;;;;30.06;18.99;102409.94;5023646;28;20038;-66
2022/08/11 09:48:19;;;;;;;1.48;0.20;;;;;;;30.30;17.97;102405.81;4989434;28;20049;-66
2022/08/11 09:50:52;;;;;;;2.05;0.28;;;;;;;30.48;18.10;102413.88;5018059;28;20037;-66
2022/08/11 09:53:22;;;;;;;1.23;0.30;;;;;;;30.84;17.77;102416.50;5017277;28;20152;-66
2022/08/11 09:55:49;;;;;;;;;;;;;;;30.44;17.60;102417.88;5025055;28;20028;-66
2022/08/11 09:58:21;;;;;;;2.22;0.40;;;;;;;30.33;17.92;102416.25;5018270;28;19924;-65
2022/08/11 10:00:57;;;;;;;5.00;0.25;;;;;;;30.29;18.64;102409.53;5026654;28;20056;-66
2022/08/11 10:03:31;;;;;;;1.17;0.20;;;;;;;30.58;18.37;102414.66;5025899;28;20044;-66
2022/08/11 10:08:51;;;;;;;1.80;0.30;;;;;;;31.23;16.46;102397.16;5016079;28;20055;-66
2022/08/11 10:11:23;;;;;;;5.93;0.40;;;;;;;31.19;17.11;102397.47;5015608;28;20033;-67
2022/08/11 10:16:40;;;;;;;5.38;0.77;;;;;;;31.48;16.63;102395.41;5026679;28;20052;-66
2022/08/11 10:19:08;;;;;;;1.25;0.25;;;;;;;31.53;16.16;102396.59;5025905;28;20487;-67
2022/08/11 10:21:42;;;;;;;2.05;0.47;;;;;;;31.64;15.97;102394.59;5001094;28;20129;-67
2022/08/11 10:26:59;;;;;;;0.47;0.20;;;;;;;31.10;16.17;102398.44;5016079;28;20525;-67
2022/08/11 10:35:12;;;;;;;0.50;0.20;;;;;;;31.45;17.06;102385.75;5006885;28;20243;-66
2022/08/11 10:37:43;;;;;;;2.22;0.30;;;;;;;31.93;16.42;102389.59;5013852;28;20091;-66
2022/08/11 10:40:15;;;;;;;1.38;0.25;;;;;;;31.39;15.98;102392.66;5006277;28;20520;-66
2022/08/11 10:43:05;;;;;;;0.43;0.30;;;;;;;30.99;16.23;102390.59;5004740;28;20053;-66
2022/08/11 10:48:30;;;;;;;1.05;0.35;;;;;;;32.05;15.75;102386.56;5030104;28;20037;-66
2022/08/11 10:51:13;;;;;;;1.65;0.60;;;;;;;31.56;15.38;102385.47;5028242;28;20048;-66
2022/08/11 10:59:31;;;;;;;1.50;0.25;;;;;;;33.00;15.62;102375.97;5012942;28;20045;-67
2022/08/11 11:01:59;;;;;;;1.73;0.70;;;;;;;32.93;14.93;102375.00;5006252;28;20472;-66
2022/08/11 11:05:23;;;;;;;2.15;0.22;;;;;;;32.26;14.79;102373.38;5029339;28;20037;-66
2022/08/11 11:08:51;;;;;;;0.50;0.22;;;;;;;31.52;15.78;102370.59;5023695;28;20881;-67
2022/08/11 11:10:53;;;;;;;1.25;0.32;;;;;;;30.77;16.58;102376.63;5026704;28;20049;-67
2022/08/11 11:19:18;;;;;;;0.93;0.30;;;;;;;31.62;16.02;102365.88;5038340;28;20053;-67
2022/08/11 11:21:46;;;;;;;3.22;0.30;;;;;;;32.08;15.24;102370.03;5031115;28;20064;-68
2022/08/11 11:24:36;;;;;;;;;;;;;;;32.55;15.29;102366.63;5031754;28;20244;-67
2022/08/11 11:27:14;;;;;;;1.17;0.22;;;;;;;32.72;14.79;102361.97;5018886;28;19934;-67
2022/08/11 11:29:53;;;;;;;2.03;0.50;;;;;;;32.09;15.49;102355.47;5031227;28;20032;-68
2022/08/11 11:32:34;;;;;;;1.33;0.40;;;;;;;31.97;15.58;102353.09;5030227;28;20080;-67
2022/08/11 11:35:14;;;;;;;1.10;0.30;;;;;;;32.02;14.76;102355.31;5029416;28;20063;-67
2022/08/11 11:37:43;;;;;;;2.47;0.35;;;;;;;31.62;15.26;102360.47;5031909;28;20071;-67
2022/08/11 11:40:14;;;;;;;0.43;0.30;;;;;;;31.52;15.63;102353.56;5034417;28;20539;-67
2022/08/11 11:42:44;;;;;;;;;;;;;;;31.20;15.90;102361.38;5018619;28;20134;-66
2022/08/11 11:45:16;;;;;;;1.90;0.47;;;;;;;31.24;16.75;102355.63;5026847;28;19924;-66
2022/08/11 11:47:45;;;;;;;4.43;1.38;;;;;;;31.25;16.04;102355.47;5027527;28;20044;-66
2022/08/11 11:50:18;;;;;;;1.67;0.30;;;;;;;31.70;16.34;102361.53;5027391;28;20064;-66
2022/08/11 11:53:00;;;;;;;1.65;0.40;;;;;;;32.09;15.95;102350.91;5019395;28;20072;-66
2022/08/11 11:55:31;;;;;;;0.80;0.30;;;;;;;31.71;14.96;102349.69;5034553;28;20040;-66
2022/08/11 12:03:37;;;;;;;1.60;0.50;;;;;;;32.78;14.50;102342.34;5026652;28;20059;-66
2022/08/11 12:06:10;;;;;;;3.63;0.40;;;;;;;33.03;13.92;102337.69;5028030;28;20615;-66
2022/08/11 12:08:46;;;;;;;1.45;0.30;;;;;;;32.87;14.13;102338.63;5024100;28;20619;-68
2022/08/11 12:14:05;;;;;;;1.77;0.35;;;;;;;32.00;15.46;102336.53;5030528;28;20055;-67
2022/08/11 12:16:34;;;;;;;3.85;0.65;;;;;;;32.12;14.88;102349.72;5027804;28;20701;-66
2022/08/11 12:19:05;;;;;;;0.90;0.30;;;;;;;32.24;14.81;102342.97;5027694;28;20338;-66
2022/08/11 12:21:35;;;;;;;2.80;0.40;;;;;;;32.68;15.01;102334.44;5030237;28;20112;-66
2022/08/11 12:29:39;;;;;;;1.55;0.50;;;;;;;32.06;17.13;102331.47;5043409;28;20156;-66
2022/08/11 12:32:07;;;;;;;3.13;0.50;;;;;;;32.26;17.82;102330.09;5014846;28;20127;-66
2022/08/11 12:34:35;;;;;;;5.88;0.30;;;;;;;32.55;16.27;102318.75;5025379;28;20601;-66
2022/08/11 12:37:05;;;;;;;1.63;0.20;;;;;;;31.93;16.57;102321.16;5018395;28;20102;-67
2022/08/11 12:45:34;;;;;;;1.48;0.60;;;;;;;31.68;17.16;102315.72;5011874;28;20817;-67
2022/08/11 12:54:21;;;;;;;0.98;0.40;;;;;;;31.28;17.60;102317.31;5010101;28;20039;-67
2022/08/11 13:05:26;;;;;;;3.75;0.60;;;;;;;31.94;18.13;102299.38;5012606;28;20083;-67
2022/08/11 13:07:52;;;;;;;2.95;0.40;;;;;;;31.90;17.15;102303.41;5008051;28;20464;-67
2022/08/11 13:13:14;;;;;;;1.13;0.38;;;;;;;32.11;17.23;102299.34;5010600;28;20406;-67
2022/08/11 13:15:43;;;;;;;4.35;0.70;;;;;;;32.76;16.71;102296.50;5027788;28;20379;-67
2022/08/11 13:18:15;;;;;;;1.45;0.50;;;;;;;32.08;16.85;102299.72;4996428;28;20044;-67
2022/08/11 13:20:43;;;;;;;0.98;0.30;;;;;;;32.00;17.07;102298.69;5010375;28;20087;-67
2022/08/11 13:23:12;;;;;;;5.97;0.50;;;;;;;32.48;17.03;102292.56;5025445;28;20147;-66
2022/08/11 13:25:39;;;;;;;1.88;0.82;;;;;;;32.46;16.59;102297.31;5011318;28;20136;-67
2022/08/11 13:28:09;;;;;;;1.88;0.50;;;;;;;32.58;16.47;102302.13;5009483;28;20025;-67
2022/08/11 13:33:24;;;;;;;4.75;0.30;;;;;;;32.84;16.80;102296.50;5001040;28;20176;-66
2022/08/11 13:35:53;;;;;;;3.20;0.50;;;;;;;32.98;16.24;102289.47;5010060;28;20428;-67
2022/08/11 13:38:31;;;;;;;2.38;0.40;;;;;;;32.58;16.58;102282.38;5002757;28;20300;-66
2022/08/11 13:40:59;;;;;;;3.03;0.47;;;;;;;32.20;17.42;102295.63;5013157;28;20107;-66
2022/08/11 13:43:28;;;;;;;0.77;0.32;;;;;;;32.56;17.41;102297.94;5003376;28;20057;-67
2022/08/11 13:46:17;;;;;;;0.65;0.40;;;;;;;32.74;16.68;102295.81;5011292;28;20021;-67
2022/08/11 13:48:43;;;;;;;1.58;0.20;;;;;;;32.46;17.19;102291.88;5001522;28;20033;-66
2022/08/11 13:51:32;;;;;;;1.35;0.52;;;;;;;32.40;16.54;102288.84;5012194;28;20555;-66
2022/08/11 13:54:03;;;;;;;2.40;0.80;;;;;;;32.46;17.12;102291.88;4989549;28;20041;-66
2022/08/11 13:56:30;;;;;;;2.33;0.38;;;;;;;32.20;17.41;102290.22;4991648;28;20514;-67
2022/08/11 13:58:56;;;;;;;4.68;0.35;;;;;;;31.98;16.76;102281.78;5011054;28;20452;-66
2022/08/11 14:01:28;;;;;;;0.65;0.32;;;;;;;31.71;17.29;102276.72;5030870;28;20139;-66
2022/08/11 14:03:55;;;;;;;5.18;0.80;;;;;;;31.27;17.44;102268.88;5011155;28;20439;-66
2022/08/11 14:06:21;;;;;;;3.08;0.57;;;;;;;31.52;17.35;102273.34;5013322;28;20104;-67
2022/08/11 14:08:52;;;;;;;0.82;0.22;;;;;;;31.76;17.78;102274.34;4998893;28;20560;-66
2022/08/11 14:14:26;;;;;;;2.25;0.70;;;;;;;31.95;17.48;102268.63;4991732;28;20038;-67
2022/08/11 14:16:55;;;;;;;3.88;0.45;;;;;;;31.83;17.69;102259.16;4994847;28;20702;-67
2022/08/11 14:19:24;;;;;;;0.85;0.63;;;;;;;31.94;16.98;102264.25;5017951;28;20052;-67
2022/08/11 14:22:07;;;;;;;1.30;0.35;;;;;;;31.60;17.85;102259.81;5015978;28;20033;-66
2022/08/11 14:24:36;;;;;;;1.48;0.40;;;;;;;31.43;17.94;102255.41;5018389;28;20404;-67
2022/08/11 14:27:02;;;;;;;2.33;0.45;;;;;;;31.53;17.61;102258.81;5032848;28;20334;-67
2022/08/11 14:29:31;;;;;;;1.85;0.22;;;;;;;31.17;17.59;102259.06;5018427;28;20044;-67
2022/08/11 14:32:02;;;;;;;2.22;0.25;;;;;;;31.35;17.92;102250.81;5014614;28;20040;-67
2022/08/11 14:34:29;;;;;;;1.85;0.40;;;;;;;31.46;18.19;102246.94;5018110;28;20845;-68
2022/08/11 14:36:56;;;;;;;1.40;0.40;;;;;;;31.93;18.18;102257.13;5018348;28;20080;-67
2022/08/11 14:39:35;;;;;;;1.77;0.50;;;;;;;31.77;17.77;102249.00;5016916;28;20040;-67
2022/08/11 14:47:43;;;;;;;3.00;0.40;;;;;;;30.98;18.59;102253.91;5019065;28;20236;-67
2022/08/11 14:50:21;;;;;;;2.58;0.90;;;;;;;30.68;18.18;102248.09;5030043;28;20029;-67
2022/08/11 14:53:03;;;;;;;0.63;0.43;;;;;;;30.41;18.82;102254.50;5014649;28;20029;-66
2022/08/11 14:58:19;;;;;;;2.13;0.32;;;;;;;30.18;18.90;102252.38;5029910;28;20160;-66
2022/08/11 15:00:46;;;;;;;5.40;0.52;;;;;;;30.25;19.36;102246.34;5026284;28;20045;-65
2022/08/11 15:03:14;;;;;;;0.75;0.40;;;;;;;30.64;18.67;102252.13;5027358;28;20037;-66
2022/08/11 15:05:52;;;;;;;1.60;0.30;;;;;;;30.45;18.96;102237.00;5030787;28;20513;-66
2022/08/11 15:08:19;;;;;;;2.25;0.40;;;;;;;29.62;19.82;102234.75;5027825;28;20051;-66
2022/08/11 15:10:47;;;;;;;2.63;0.85;;;;;;;29.80;19.92;102241.94;5030244;28;20047;-66
2022/08/11 15:13:18;;;;;;;1.38;0.28;;;;;;;29.80;19.35;102240.13;5027422;28;20075;-67
2022/08/11 15:18:33;;;;;;;6.25;0.50;;;;;;;29.69;20.06;102237.66;5025859;28;20160;-66
2022/08/11 15:37:41;;;;;;;1.02;0.30;;;;;;;29.78;19.52;102221.41;5029017;28;20052;-66
2022/08/11 15:45:49;;;;;;;0.82;0.22;;;;;;;29.21;20.38;102214.63;5027199;28;20073;-66
2022/08/11 15:48:32;;;;;;;2.17;0.57;;;;;;;29.08;20.72;102215.84;5030577;28;20457;-67
2022/08/11 15:51:08;;;;;;;2.25;0.40;;;;;;;28.69;20.49;102208.00;5025198;28;20029;-66
2022/08/11 15:53:50;;;;;;;4.65;0.88;;;;;;;28.81;21.28;102207.78;5030026;28;20056;-67
2022/08/11 15:56:17;;;;;;;2.55;0.30;;;;;;;28.43;21.71;102205.09;5034931;23;20045;-72
2022/08/11 16:04:23;;;;;;;2.15;0.40;;;;;;;28.97;20.80;102202.59;5020365;28;20049;-72
2022/08/11 16:06:54;;;;;;;0.73;0.40;;;;;;;29.19;20.68;102198.63;5013374;28;20036;-72
2022/08/11 16:09:43;;;;;;;2.22;0.43;;;;;;;29.10;21.43;102202.22;5015708;28;20136;-72
2022/08/11 16:12:13;;;;;;;2.55;0.45;;;;;;;29.32;21.60;102195.56;5006958;28;20767;-71
2022/08/11 16:17:32;;;;;;;5.57;0.60;;;;;;;28.91;21.20;102192.44;4995076;28;20041;-72
2022/08/11 16:20:00;;;;;;;2.35;0.50;;;;;;;28.58;21.75;102183.94;4992456;28;20215;-71
2022/08/11 16:22:41;;;;;;;0.82;0.30;;;;;;;28.27;22.63;102184.22;4996947;28;20050;-71
2022/08/11 16:25:10;;;;;;;0.88;0.30;;;;;;;27.92;23.07;102183.06;4993086;28;20762;-71
2022/08/11 16:27:41;;;;;;;4.75;0.50;;;;;;;28.05;22.93;102182.72;4992527;28;20044;-72
2022/08/11 16:30:09;;;;;;;2.95;1.75;;;;;;;28.35;22.35;102186.19;4988343;28;20042;-72
2022/08/11 16:32:37;;;;;;;1.50;0.30;;;;;;;28.22;22.62;102173.06;4991637;28;20491;-71
2022/08/11 16:40:42;;;;;;;1.95;0.60;;;;;;;28.67;21.76;102175.00;4994168;28;20535;-71
2022/08/11 16:46:58;;;;;;;1.15;0.50;;;;;;;28.51;23.01;102174.78;4994187;28;20073;-71
2022/08/11 16:49:27;;;;;;;2.10;0.40;;;;;;;28.10;23.23;102172.38;4992014;28;20141;-71
2022/08/11 16:51:53;;;;;;;1.55;0.40;;;;;;;28.32;23.05;102170.34;4992359;28;20052;-71
2022/08/11 16:54:19;;;;;;;9.10;0.95;;;;;;;28.38;22.78;102160.84;4993521;28;20037;-72
2022/08/11 16:56:52;;;;;;;1.48;0.68;;;;;;;27.84;23.63;102165.97;4989902;28;20150;-72